sensor_id;sensor_type;location;lat;lon;timestamp;P1;durP1;ratioP1;P2;durP2;ratioP2
32236;SDS011;18726;44.732;10.550;2023-12-22T00:02:41;46.40;;;31.77;;
32236;SDS011;18726;44.732;10.550;2023-12-22T00:05:45;43.28;;;31.90;;
32236;SDS011;18726;44.732;10.550;2023-12-22T00:08:49;41.08;;;31.98;;
32236;SDS011;18726;44.732;10.550;2023-12-22T00:11:53;39.13;;;29.75;;
32236;SDS011;18726;44.732;10.550;2023-12-22T00:14:57;35.45;;;29.05;;
32236;SDS011;18726;44.732;10.550;2023-12-22T00:18:00;40.63;;;29.65;;
32236;SDS011;18726;44.732;10.550;2023-12-22T00:21:04;36.88;;;29.23;;
32236;SDS011;18726;44.732;10.550;2023-12-22T00:24:07;36.42;;;28.50;;
32236;SDS011;18726;44.732;10.550;2023-12-22T00:27:11;38.95;;;27.98;;
32236;SDS011;18726;44.732;10.550;2023-12-22T00:30:15;36.53;;;26.25;;
32236;SDS011;18726;44.732;10.550;2023-12-22T00:33:19;33.97;;;27.00;;
32236;SDS011;18726;44.732;10.550;2023-12-22T00:36:23;37.17;;;27.52;;
32236;SDS011;18726;44.732;10.550;2023-12-22T00:39:28;34.03;;;27.30;;
32236;SDS011;18726;44.732;10.550;2023-12-22T00:42:31;33.38;;;26.38;;
32236;SDS011;18726;44.732;10.550;2023-12-22T00:45:34;38.10;;;27.63;;
32236;SDS011;18726;44.732;10.550;2023-12-22T00:48:38;39.63;;;26.20;;
32236;SDS011;18726;44.732;10.550;2023-12-22T00:51:42;36.30;;;26.48;;
32236;SDS011;18726;44.732;10.550;2023-12-22T00:54:46;31.83;;;25.30;;
32236;SDS011;18726;44.732;10.550;2023-12-22T00:57:50;32.00;;;24.90;;
32236;SDS011;18726;44.732;10.550;2023-12-22T01:00:54;36.47;;;26.70;;
32236;SDS011;18726;44.732;10.550;2023-12-22T01:03:57;26.13;;;21.35;;
32236;SDS011;18726;44.732;10.550;2023-12-22T01:07:00;24.02;;;21.40;;
32236;SDS011;18726;44.732;10.550;2023-12-22T01:10:04;32.50;;;23.58;;
32236;SDS011;18726;44.732;10.550;2023-12-22T01:13:08;24.98;;;20.65;;
32236;SDS011;18726;44.732;10.550;2023-12-22T01:16:12;30.45;;;23.08;;
32236;SDS011;18726;44.732;10.550;2023-12-22T01:19:16;32.85;;;23.17;;
32236;SDS011;18726;44.732;10.550;2023-12-22T01:22:20;30.88;;;23.95;;
32236;SDS011;18726;44.732;10.550;2023-12-22T01:25:26;31.27;;;25.35;;
32236;SDS011;18726;44.732;10.550;2023-12-22T01:28:29;31.02;;;23.48;;
32236;SDS011;18726;44.732;10.550;2023-12-22T01:31:33;30.23;;;26.10;;
32236;SDS011;18726;44.732;10.550;2023-12-22T01:34:36;28.45;;;22.40;;
32236;SDS011;18726;44.732;10.550;2023-12-22T01:37:40;35.78;;;27.17;;
32236;SDS011;18726;44.732;10.550;2023-12-22T01:40:44;27.85;;;23.98;;
32236;SDS011;18726;44.732;10.550;2023-12-22T01:43:47;27.00;;;21.92;;
32236;SDS011;18726;44.732;10.550;2023-12-22T01:46:51;36.38;;;28.13;;
32236;SDS011;18726;44.732;10.550;2023-12-22T01:49:55;30.67;;;26.58;;
32236;SDS011;18726;44.732;10.550;2023-12-22T01:52:58;29.40;;;24.40;;
32236;SDS011;18726;44.732;10.550;2023-12-22T01:56:02;37.15;;;24.63;;
32236;SDS011;18726;44.732;10.550;2023-12-22T01:59:07;42.17;;;26.55;;
32236;SDS011;18726;44.732;10.550;2023-12-22T02:02:11;33.63;;;27.20;;
32236;SDS011;18726;44.732;10.550;2023-12-22T02:05:15;39.58;;;28.75;;
32236;SDS011;18726;44.732;10.550;2023-12-22T02:08:19;44.28;;;31.35;;
32236;SDS011;18726;44.732;10.550;2023-12-22T02:11:26;39.30;;;30.90;;
32236;SDS011;18726;44.732;10.550;2023-12-22T02:14:30;39.05;;;31.20;;
32236;SDS011;18726;44.732;10.550;2023-12-22T02:17:44;38.33;;;29.67;;
32236;SDS011;18726;44.732;10.550;2023-12-22T02:20:58;35.67;;;29.00;;
32236;SDS011;18726;44.732;10.550;2023-12-22T02:24:02;40.42;;;29.98;;
32236;SDS011;18726;44.732;10.550;2023-12-22T02:27:06;42.95;;;32.90;;
32236;SDS011;18726;44.732;10.550;2023-12-22T02:30:34;41.28;;;30.08;;
32236;SDS011;18726;44.732;10.550;2023-12-22T02:33:45;41.95;;;31.02;;
32236;SDS011;18726;44.732;10.550;2023-12-22T02:36:51;39.45;;;32.15;;
32236;SDS011;18726;44.732;10.550;2023-12-22T02:39:57;40.58;;;32.15;;
32236;SDS011;18726;44.732;10.550;2023-12-22T02:43:03;58.60;;;45.13;;
32236;SDS011;18726;44.732;10.550;2023-12-22T02:46:14;56.40;;;43.13;;
32236;SDS011;18726;44.732;10.550;2023-12-22T02:49:19;69.75;;;53.40;;
32236;SDS011;18726;44.732;10.550;2023-12-22T02:52:23;56.75;;;39.92;;
32236;SDS011;18726;44.732;10.550;2023-12-22T02:55:26;39.65;;;32.78;;
32236;SDS011;18726;44.732;10.550;2023-12-22T02:58:30;44.55;;;32.17;;
32236;SDS011;18726;44.732;10.550;2023-12-22T03:01:34;39.92;;;31.17;;
32236;SDS011;18726;44.732;10.550;2023-12-22T03:04:38;41.47;;;30.65;;
32236;SDS011;18726;44.732;10.550;2023-12-22T03:07:43;41.22;;;30.50;;
32236;SDS011;18726;44.732;10.550;2023-12-22T03:10:47;36.15;;;28.08;;
32236;SDS011;18726;44.732;10.550;2023-12-22T03:13:51;41.88;;;29.00;;
32236;SDS011;18726;44.732;10.550;2023-12-22T03:16:54;38.03;;;27.27;;
32236;SDS011;18726;44.732;10.550;2023-12-22T03:19:58;39.08;;;27.23;;
32236;SDS011;18726;44.732;10.550;2023-12-22T03:23:02;26.60;;;20.50;;
32236;SDS011;18726;44.732;10.550;2023-12-22T03:26:06;13.52;;;12.15;;
32236;SDS011;18726;44.732;10.550;2023-12-22T03:29:09;7.38;;;6.78;;
32236;SDS011;18726;44.732;10.550;2023-12-22T03:32:13;4.55;;;4.25;;
32236;SDS011;18726;44.732;10.550;2023-12-22T03:35:17;4.05;;;3.78;;
32236;SDS011;18726;44.732;10.550;2023-12-22T03:38:20;6.53;;;3.90;;
32236;SDS011;18726;44.732;10.550;2023-12-22T03:41:24;3.38;;;3.17;;
32236;SDS011;18726;44.732;10.550;2023-12-22T03:44:28;3.60;;;3.15;;
32236;SDS011;18726;44.732;10.550;2023-12-22T03:47:32;3.58;;;3.38;;
32236;SDS011;18726;44.732;10.550;2023-12-22T03:50:36;3.78;;;3.42;;
32236;SDS011;18726;44.732;10.550;2023-12-22T03:53:39;4.90;;;3.10;;
32236;SDS011;18726;44.732;10.550;2023-12-22T03:56:43;3.50;;;3.20;;
32236;SDS011;18726;44.732;10.550;2023-12-22T03:59:47;3.85;;;3.45;;
32236;SDS011;18726;44.732;10.550;2023-12-22T04:02:51;3.50;;;3.20;;
32236;SDS011;18726;44.732;10.550;2023-12-22T04:05:55;6.10;;;3.17;;
32236;SDS011;18726;44.732;10.550;2023-12-22T04:08:59;3.20;;;3.00;;
32236;SDS011;18726;44.732;10.550;2023-12-22T04:12:02;3.22;;;2.97;;
32236;SDS011;18726;44.732;10.550;2023-12-22T04:15:06;3.78;;;3.47;;
32236;SDS011;18726;44.732;10.550;2023-12-22T04:18:11;6.28;;;3.30;;
32236;SDS011;18726;44.732;10.550;2023-12-22T04:21:15;2.97;;;2.78;;
32236;SDS011;18726;44.732;10.550;2023-12-22T04:24:18;4.35;;;2.65;;
32236;SDS011;18726;44.732;10.550;2023-12-22T04:27:22;3.30;;;2.50;;
32236;SDS011;18726;44.732;10.550;2023-12-22T04:30:26;2.90;;;2.70;;
32236;SDS011;18726;44.732;10.550;2023-12-22T04:33:31;6.88;;;2.95;;
32236;SDS011;18726;44.732;10.550;2023-12-22T04:36:34;3.20;;;2.90;;
32236;SDS011;18726;44.732;10.550;2023-12-22T04:39:39;4.28;;;3.08;;
32236;SDS011;18726;44.732;10.550;2023-12-22T04:42:43;3.40;;;3.20;;
32236;SDS011;18726;44.732;10.550;2023-12-22T04:45:47;5.78;;;3.58;;
32236;SDS011;18726;44.732;10.550;2023-12-22T04:48:51;2.90;;;2.70;;
32236;SDS011;18726;44.732;10.550;2023-12-22T04:51:54;3.25;;;2.95;;
32236;SDS011;18726;44.732;10.550;2023-12-22T04:54:58;3.15;;;2.90;;
32236;SDS011;18726;44.732;10.550;2023-12-22T04:58:02;4.55;;;3.20;;
32236;SDS011;18726;44.732;10.550;2023-12-22T05:01:07;5.72;;;3.45;;
32236;SDS011;18726;44.732;10.550;2023-12-22T05:04:11;15.32;;;9.02;;
32236;SDS011;18726;44.732;10.550;2023-12-22T05:07:15;12.50;;;8.93;;
32236;SDS011;18726;44.732;10.550;2023-12-22T05:10:19;8.57;;;6.35;;
32236;SDS011;18726;44.732;10.550;2023-12-22T05:13:23;4.55;;;3.08;;
32236;SDS011;18726;44.732;10.550;2023-12-22T05:16:27;3.00;;;2.70;;
32236;SDS011;18726;44.732;10.550;2023-12-22T05:19:34;8.45;;;3.45;;
32236;SDS011;18726;44.732;10.550;2023-12-22T05:22:37;11.20;;;3.42;;
32236;SDS011;18726;44.732;10.550;2023-12-22T05:25:41;4.70;;;3.72;;
32236;SDS011;18726;44.732;10.550;2023-12-22T05:28:45;3.50;;;3.20;;
32236;SDS011;18726;44.732;10.550;2023-12-22T05:31:49;5.50;;;4.45;;
32236;SDS011;18726;44.732;10.550;2023-12-22T05:34:53;4.05;;;3.67;;
32236;SDS011;18726;44.732;10.550;2023-12-22T05:37:56;6.78;;;3.55;;
32236;SDS011;18726;44.732;10.550;2023-12-22T05:41:00;4.35;;;2.95;;
32236;SDS011;18726;44.732;10.550;2023-12-22T05:44:04;3.13;;;2.85;;
32236;SDS011;18726;44.732;10.550;2023-12-22T05:47:11;4.00;;;3.25;;
32236;SDS011;18726;44.732;10.550;2023-12-22T05:50:16;3.88;;;2.90;;
32236;SDS011;18726;44.732;10.550;2023-12-22T05:53:20;3.47;;;2.75;;
32236;SDS011;18726;44.732;10.550;2023-12-22T05:56:24;3.38;;;3.08;;
32236;SDS011;18726;44.732;10.550;2023-12-22T05:59:28;3.25;;;3.05;;
32236;SDS011;18726;44.732;10.550;2023-12-22T06:02:33;3.65;;;3.35;;
32236;SDS011;18726;44.732;10.550;2023-12-22T06:05:37;3.53;;;3.13;;
32236;SDS011;18726;44.732;10.550;2023-12-22T06:08:41;3.53;;;3.22;;
32236;SDS011;18726;44.732;10.550;2023-12-22T06:11:45;4.22;;;3.42;;
32236;SDS011;18726;44.732;10.550;2023-12-22T06:14:49;3.22;;;3.03;;
32236;SDS011;18726;44.732;10.550;2023-12-22T06:17:53;2.80;;;2.60;;
32236;SDS011;18726;44.732;10.550;2023-12-22T06:20:56;3.28;;;2.97;;
32236;SDS011;18726;44.732;10.550;2023-12-22T06:24:00;3.30;;;2.92;;
32236;SDS011;18726;44.732;10.550;2023-12-22T06:27:04;3.83;;;3.30;;
32236;SDS011;18726;44.732;10.550;2023-12-22T06:30:09;3.00;;;2.80;;
32236;SDS011;18726;44.732;10.550;2023-12-22T06:33:14;6.75;;;3.30;;
32236;SDS011;18726;44.732;10.550;2023-12-22T06:36:21;3.55;;;3.00;;
32236;SDS011;18726;44.732;10.550;2023-12-22T06:39:26;3.40;;;3.17;;
32236;SDS011;18726;44.732;10.550;2023-12-22T06:42:30;2.97;;;2.70;;
32236;SDS011;18726;44.732;10.550;2023-12-22T06:45:33;4.65;;;3.40;;
32236;SDS011;18726;44.732;10.550;2023-12-22T06:48:38;3.20;;;2.70;;
32236;SDS011;18726;44.732;10.550;2023-12-22T06:51:41;3.13;;;2.92;;
32236;SDS011;18726;44.732;10.550;2023-12-22T06:54:44;4.95;;;2.83;;
32236;SDS011;18726;44.732;10.550;2023-12-22T06:57:48;7.28;;;3.10;;
32236;SDS011;18726;44.732;10.550;2023-12-22T07:00:52;3.00;;;2.80;;
32236;SDS011;18726;44.732;10.550;2023-12-22T07:03:55;3.60;;;3.30;;
32236;SDS011;18726;44.732;10.550;2023-12-22T07:06:59;3.42;;;3.13;;
32236;SDS011;18726;44.732;10.550;2023-12-22T07:10:03;6.63;;;3.20;;
32236;SDS011;18726;44.732;10.550;2023-12-22T07:13:07;4.72;;;3.00;;
32236;SDS011;18726;44.732;10.550;2023-12-22T07:16:11;3.10;;;2.80;;
32236;SDS011;18726;44.732;10.550;2023-12-22T07:19:15;7.78;;;2.97;;
32236;SDS011;18726;44.732;10.550;2023-12-22T07:22:18;2.95;;;2.70;;
32236;SDS011;18726;44.732;10.550;2023-12-22T07:25:22;3.08;;;2.75;;
32236;SDS011;18726;44.732;10.550;2023-12-22T07:28:27;2.85;;;2.20;;
32236;SDS011;18726;44.732;10.550;2023-12-22T07:31:30;3.03;;;2.20;;
32236;SDS011;18726;44.732;10.550;2023-12-22T07:34:34;4.88;;;2.70;;
32236;SDS011;18726;44.732;10.550;2023-12-22T07:37:38;13.65;;;2.40;;
32236;SDS011;18726;44.732;10.550;2023-12-22T07:40:42;2.72;;;2.53;;
32236;SDS011;18726;44.732;10.550;2023-12-22T07:43:45;2.35;;;2.00;;
32236;SDS011;18726;44.732;10.550;2023-12-22T07:46:58;5.43;;;1.92;;
32236;SDS011;18726;44.732;10.550;2023-12-22T07:50:04;2.13;;;1.80;;
32236;SDS011;18726;44.732;10.550;2023-12-22T07:53:12;1.92;;;1.77;;
32236;SDS011;18726;44.732;10.550;2023-12-22T07:56:15;4.50;;;2.13;;
32236;SDS011;18726;44.732;10.550;2023-12-22T07:59:19;2.03;;;1.88;;
32236;SDS011;18726;44.732;10.550;2023-12-22T08:02:23;4.40;;;1.80;;
32236;SDS011;18726;44.732;10.550;2023-12-22T08:05:27;3.03;;;1.70;;
32236;SDS011;18726;44.732;10.550;2023-12-22T08:08:30;2.38;;;1.60;;
32236;SDS011;18726;44.732;10.550;2023-12-22T08:11:33;7.53;;;1.65;;
32236;SDS011;18726;44.732;10.550;2023-12-22T08:14:37;1.95;;;1.55;;
32236;SDS011;18726;44.732;10.550;2023-12-22T08:17:47;5.10;;;1.95;;
32236;SDS011;18726;44.732;10.550;2023-12-22T08:20:51;1.95;;;1.45;;
32236;SDS011;18726;44.732;10.550;2023-12-22T08:23:54;1.85;;;1.75;;
32236;SDS011;18726;44.732;10.550;2023-12-22T08:26:58;2.00;;;1.60;;
32236;SDS011;18726;44.732;10.550;2023-12-22T08:30:02;2.33;;;1.77;;
32236;SDS011;18726;44.732;10.550;2023-12-22T08:33:06;1.20;;;1.10;;
32236;SDS011;18726;44.732;10.550;2023-12-22T08:36:10;2.03;;;1.40;;
32236;SDS011;18726;44.732;10.550;2023-12-22T08:39:14;5.00;;;1.77;;
32236;SDS011;18726;44.732;10.550;2023-12-22T08:42:18;1.50;;;1.23;;
32236;SDS011;18726;44.732;10.550;2023-12-22T08:45:22;3.47;;;1.35;;
32236;SDS011;18726;44.732;10.550;2023-12-22T08:48:25;1.65;;;1.23;;
32236;SDS011;18726;44.732;10.550;2023-12-22T08:51:29;3.45;;;1.45;;
32236;SDS011;18726;44.732;10.550;2023-12-22T08:54:32;1.45;;;1.35;;
32236;SDS011;18726;44.732;10.550;2023-12-22T08:57:37;3.13;;;1.20;;
32236;SDS011;18726;44.732;10.550;2023-12-22T09:00:40;3.58;;;1.35;;
32236;SDS011;18726;44.732;10.550;2023-12-22T09:03:44;2.00;;;1.33;;
32236;SDS011;18726;44.732;10.550;2023-12-22T09:06:49;3.22;;;1.20;;
32236;SDS011;18726;44.732;10.550;2023-12-22T09:09:54;2.05;;;1.17;;
32236;SDS011;18726;44.732;10.550;2023-12-22T09:12:57;3.70;;;1.30;;
32236;SDS011;18726;44.732;10.550;2023-12-22T09:16:01;1.20;;;1.10;;
32236;SDS011;18726;44.732;10.550;2023-12-22T09:19:08;2.55;;;1.30;;
32236;SDS011;18726;44.732;10.550;2023-12-22T09:22:11;1.92;;;1.05;;
32236;SDS011;18726;44.732;10.550;2023-12-22T09:25:15;4.60;;;1.40;;
32236;SDS011;18726;44.732;10.550;2023-12-22T09:28:19;1.30;;;1.20;;
32236;SDS011;18726;44.732;10.550;2023-12-22T09:31:23;3.47;;;1.35;;
32236;SDS011;18726;44.732;10.550;2023-12-22T09:34:26;2.03;;;1.45;;
32236;SDS011;18726;44.732;10.550;2023-12-22T09:37:33;1.63;;;0.85;;
32236;SDS011;18726;44.732;10.550;2023-12-22T09:40:36;1.30;;;1.20;;
32236;SDS011;18726;44.732;10.550;2023-12-22T09:43:40;1.25;;;0.95;;
32236;SDS011;18726;44.732;10.550;2023-12-22T09:46:49;1.27;;;1.08;;
32236;SDS011;18726;44.732;10.550;2023-12-22T09:49:54;2.25;;;1.05;;
32236;SDS011;18726;44.732;10.550;2023-12-22T09:52:58;1.50;;;1.40;;
32236;SDS011;18726;44.732;10.550;2023-12-22T09:56:02;4.32;;;1.27;;
32236;SDS011;18726;44.732;10.550;2023-12-22T09:59:07;1.10;;;1.00;;
32236;SDS011;18726;44.732;10.550;2023-12-22T10:02:15;3.67;;;1.02;;
32236;SDS011;18726;44.732;10.550;2023-12-22T10:05:19;1.50;;;1.10;;
32236;SDS011;18726;44.732;10.550;2023-12-22T10:08:23;0.75;;;0.75;;
32236;SDS011;18726;44.732;10.550;2023-12-22T10:11:29;2.35;;;1.33;;
32236;SDS011;18726;44.732;10.550;2023-12-22T10:14:35;1.50;;;1.40;;
32236;SDS011;18726;44.732;10.550;2023-12-22T10:17:41;1.48;;;0.93;;
32236;SDS011;18726;44.732;10.550;2023-12-22T10:20:44;1.10;;;1.00;;
32236;SDS011;18726;44.732;10.550;2023-12-22T10:23:49;1.20;;;0.98;;
32236;SDS011;18726;44.732;10.550;2023-12-22T10:26:53;1.52;;;1.42;;
32236;SDS011;18726;44.732;10.550;2023-12-22T10:29:56;3.45;;;1.05;;
32236;SDS011;18726;44.732;10.550;2023-12-22T10:33:03;4.60;;;0.98;;
32236;SDS011;18726;44.732;10.550;2023-12-22T10:36:07;2.22;;;1.00;;
32236;SDS011;18726;44.732;10.550;2023-12-22T10:39:11;3.63;;;1.10;;
32236;SDS011;18726;44.732;10.550;2023-12-22T10:42:14;1.85;;;0.85;;
32236;SDS011;18726;44.732;10.550;2023-12-22T10:45:18;4.85;;;1.00;;
32236;SDS011;18726;44.732;10.550;2023-12-22T10:48:23;2.28;;;1.00;;
32236;SDS011;18726;44.732;10.550;2023-12-22T10:51:26;2.53;;;1.17;;
32236;SDS011;18726;44.732;10.550;2023-12-22T10:54:30;2.72;;;1.00;;
32236;SDS011;18726;44.732;10.550;2023-12-22T10:57:34;1.75;;;0.90;;
32236;SDS011;18726;44.732;10.550;2023-12-22T11:00:41;2.53;;;1.15;;
32236;SDS011;18726;44.732;10.550;2023-12-22T11:03:50;1.80;;;1.00;;
32236;SDS011;18726;44.732;10.550;2023-12-22T11:06:54;3.42;;;1.20;;
32236;SDS011;18726;44.732;10.550;2023-12-22T11:10:04;6.88;;;1.40;;
32236;SDS011;18726;44.732;10.550;2023-12-22T11:13:10;2.13;;;1.13;;
32236;SDS011;18726;44.732;10.550;2023-12-22T11:16:16;1.23;;;1.13;;
32236;SDS011;18726;44.732;10.550;2023-12-22T11:19:21;1.55;;;1.35;;
32236;SDS011;18726;44.732;10.550;2023-12-22T11:22:27;1.35;;;1.20;;
32236;SDS011;18726;44.732;10.550;2023-12-22T11:25:33;1.00;;;1.00;;
32236;SDS011;18726;44.732;10.550;2023-12-22T11:28:39;1.15;;;1.10;;
32236;SDS011;18726;44.732;10.550;2023-12-22T11:31:45;2.22;;;1.23;;
32236;SDS011;18726;44.732;10.550;2023-12-22T11:34:53;3.67;;;1.30;;
32236;SDS011;18726;44.732;10.550;2023-12-22T11:37:58;1.13;;;1.13;;
32236;SDS011;18726;44.732;10.550;2023-12-22T11:41:04;5.78;;;1.40;;
32236;SDS011;18726;44.732;10.550;2023-12-22T11:44:11;1.40;;;1.30;;
32236;SDS011;18726;44.732;10.550;2023-12-22T11:47:14;1.08;;;1.08;;
32236;SDS011;18726;44.732;10.550;2023-12-22T11:50:28;1.40;;;1.30;;
32236;SDS011;18726;44.732;10.550;2023-12-22T11:53:35;1.60;;;1.50;;
32236;SDS011;18726;44.732;10.550;2023-12-22T11:56:40;4.97;;;1.27;;
32236;SDS011;18726;44.732;10.550;2023-12-22T11:59:44;1.02;;;1.02;;
32236;SDS011;18726;44.732;10.550;2023-12-22T12:02:54;1.33;;;1.15;;
32236;SDS011;18726;44.732;10.550;2023-12-22T12:09:16;1.17;;;1.10;;
32236;SDS011;18726;44.732;10.550;2023-12-22T12:13:03;2.78;;;1.48;;
32236;SDS011;18726;44.732;10.550;2023-12-22T12:16:20;2.50;;;2.30;;
32236;SDS011;18726;44.732;10.550;2023-12-22T12:19:28;3.08;;;2.15;;
32236;SDS011;18726;44.732;10.550;2023-12-22T12:22:32;2.60;;;2.40;;
32236;SDS011;18726;44.732;10.550;2023-12-22T12:25:36;1.45;;;1.35;;
32236;SDS011;18726;44.732;10.550;2023-12-22T12:28:43;1.50;;;1.40;;
32236;SDS011;18726;44.732;10.550;2023-12-22T12:31:49;1.13;;;1.08;;
32236;SDS011;18726;44.732;10.550;2023-12-22T12:34:54;3.10;;;1.60;;
32236;SDS011;18726;44.732;10.550;2023-12-22T12:37:59;1.20;;;1.20;;
32236;SDS011;18726;44.732;10.550;2023-12-22T12:41:04;1.52;;;1.50;;
32236;SDS011;18726;44.732;10.550;2023-12-22T12:44:11;1.70;;;1.60;;
32236;SDS011;18726;44.732;10.550;2023-12-22T12:47:15;5.20;;;2.78;;
32236;SDS011;18726;44.732;10.550;2023-12-22T12:50:22;3.88;;;1.70;;
32236;SDS011;18726;44.732;10.550;2023-12-22T12:53:35;1.60;;;1.50;;
32236;SDS011;18726;44.732;10.550;2023-12-22T12:56:41;1.50;;;1.45;;
32236;SDS011;18726;44.732;10.550;2023-12-22T12:59:50;3.17;;;1.50;;
32236;SDS011;18726;44.732;10.550;2023-12-22T13:02:55;1.42;;;1.33;;
32236;SDS011;18726;44.732;10.550;2023-12-22T13:06:08;7.30;;;1.83;;
32236;SDS011;18726;44.732;10.550;2023-12-22T13:09:12;2.45;;;1.67;;
32236;SDS011;18726;44.732;10.550;2023-12-22T13:12:17;1.38;;;1.27;;
32236;SDS011;18726;44.732;10.550;2023-12-22T13:15:21;1.42;;;1.33;;
32236;SDS011;18726;44.732;10.550;2023-12-22T13:18:25;1.70;;;1.40;;
32236;SDS011;18726;44.732;10.550;2023-12-22T13:21:29;2.30;;;1.30;;
32236;SDS011;18726;44.732;10.550;2023-12-22T13:24:33;2.22;;;1.60;;
32236;SDS011;18726;44.732;10.550;2023-12-22T13:27:46;3.88;;;1.55;;
32236;SDS011;18726;44.732;10.550;2023-12-22T13:30:54;1.60;;;1.50;;
32236;SDS011;18726;44.732;10.550;2023-12-22T13:33:59;1.40;;;1.40;;
32236;SDS011;18726;44.732;10.550;2023-12-22T13:37:03;1.38;;;1.38;;
32236;SDS011;18726;44.732;10.550;2023-12-22T13:40:08;1.70;;;1.60;;
32236;SDS011;18726;44.732;10.550;2023-12-22T13:43:12;1.48;;;1.38;;
32236;SDS011;18726;44.732;10.550;2023-12-22T13:46:16;1.90;;;1.60;;
32236;SDS011;18726;44.732;10.550;2023-12-22T13:49:20;1.67;;;1.58;;
32236;SDS011;18726;44.732;10.550;2023-12-22T13:52:24;1.30;;;1.30;;
32236;SDS011;18726;44.732;10.550;2023-12-22T13:55:31;1.98;;;1.88;;
32236;SDS011;18726;44.732;10.550;2023-12-22T13:58:46;1.52;;;1.42;;
32236;SDS011;18726;44.732;10.550;2023-12-22T14:01:50;5.30;;;1.45;;
32236;SDS011;18726;44.732;10.550;2023-12-22T14:04:54;3.20;;;1.90;;
32236;SDS011;18726;44.732;10.550;2023-12-22T14:07:57;1.73;;;1.38;;
32236;SDS011;18726;44.732;10.550;2023-12-22T14:11:01;2.70;;;1.98;;
32236;SDS011;18726;44.732;10.550;2023-12-22T14:14:05;1.73;;;1.50;;
32236;SDS011;18726;44.732;10.550;2023-12-22T14:17:09;1.80;;;1.70;;
32236;SDS011;18726;44.732;10.550;2023-12-22T14:20:13;1.73;;;1.63;;
32236;SDS011;18726;44.732;10.550;2023-12-22T14:23:17;1.80;;;1.70;;
32236;SDS011;18726;44.732;10.550;2023-12-22T14:26:21;5.97;;;1.88;;
32236;SDS011;18726;44.732;10.550;2023-12-22T14:29:25;1.42;;;1.33;;
32236;SDS011;18726;44.732;10.550;2023-12-22T14:32:29;1.50;;;1.50;;
32236;SDS011;18726;44.732;10.550;2023-12-22T14:35:33;2.75;;;1.90;;
32236;SDS011;18726;44.732;10.550;2023-12-22T14:38:36;1.88;;;1.40;;
32236;SDS011;18726;44.732;10.550;2023-12-22T14:41:40;1.50;;;1.50;;
32236;SDS011;18726;44.732;10.550;2023-12-22T14:44:45;1.90;;;1.80;;
32236;SDS011;18726;44.732;10.550;2023-12-22T14:47:49;1.77;;;1.60;;
32236;SDS011;18726;44.732;10.550;2023-12-22T14:50:52;1.55;;;1.45;;
32236;SDS011;18726;44.732;10.550;2023-12-22T14:53:55;3.72;;;2.85;;
32236;SDS011;18726;44.732;10.550;2023-12-22T14:56:59;3.55;;;3.25;;
32236;SDS011;18726;44.732;10.550;2023-12-22T15:00:04;4.95;;;3.20;;
32236;SDS011;18726;44.732;10.550;2023-12-22T15:03:08;3.60;;;3.25;;
32236;SDS011;18726;44.732;10.550;2023-12-22T15:06:12;2.85;;;2.60;;
32236;SDS011;18726;44.732;10.550;2023-12-22T15:09:16;3.50;;;2.58;;
32236;SDS011;18726;44.732;10.550;2023-12-22T15:12:20;2.15;;;2.00;;
32236;SDS011;18726;44.732;10.550;2023-12-22T15:15:24;2.03;;;1.83;;
32236;SDS011;18726;44.732;10.550;2023-12-22T15:18:28;5.40;;;2.03;;
32236;SDS011;18726;44.732;10.550;2023-12-22T15:21:31;1.80;;;1.70;;
32236;SDS011;18726;44.732;10.550;2023-12-22T15:24:35;3.70;;;2.35;;
32236;SDS011;18726;44.732;10.550;2023-12-22T15:27:39;2.05;;;1.95;;
32236;SDS011;18726;44.732;10.550;2023-12-22T15:30:43;3.60;;;2.03;;
32236;SDS011;18726;44.732;10.550;2023-12-22T15:33:47;2.25;;;2.15;;
32236;SDS011;18726;44.732;10.550;2023-12-22T15:36:50;3.88;;;2.78;;
32236;SDS011;18726;44.732;10.550;2023-12-22T15:39:54;2.22;;;2.08;;
32236;SDS011;18726;44.732;10.550;2023-12-22T15:42:58;3.38;;;3.08;;
32236;SDS011;18726;44.732;10.550;2023-12-22T15:46:08;1.98;;;1.70;;
32236;SDS011;18726;44.732;10.550;2023-12-22T15:49:12;4.43;;;3.55;;
32236;SDS011;18726;44.732;10.550;2023-12-22T15:52:16;4.40;;;4.03;;
32236;SDS011;18726;44.732;10.550;2023-12-22T15:55:20;3.17;;;2.88;;
32236;SDS011;18726;44.732;10.550;2023-12-22T15:58:23;2.13;;;2.03;;
32236;SDS011;18726;44.732;10.550;2023-12-22T16:01:27;2.83;;;2.63;;
32236;SDS011;18726;44.732;10.550;2023-12-22T16:04:31;4.57;;;2.80;;
32236;SDS011;18726;44.732;10.550;2023-12-22T16:07:35;5.25;;;3.17;;
32236;SDS011;18726;44.732;10.550;2023-12-22T16:10:38;3.40;;;3.10;;
32236;SDS011;18726;44.732;10.550;2023-12-22T16:13:43;15.35;;;9.32;;
32236;SDS011;18726;44.732;10.550;2023-12-22T16:16:46;8.43;;;5.13;;
32236;SDS011;18726;44.732;10.550;2023-12-22T16:19:50;3.97;;;3.58;;
32236;SDS011;18726;44.732;10.550;2023-12-22T16:22:53;3.58;;;3.28;;
32236;SDS011;18726;44.732;10.550;2023-12-22T16:25:57;3.92;;;3.55;;
32236;SDS011;18726;44.732;10.550;2023-12-22T16:29:01;2.92;;;2.50;;
32236;SDS011;18726;44.732;10.550;2023-12-22T16:32:05;3.13;;;2.83;;
32236;SDS011;18726;44.732;10.550;2023-12-22T16:35:09;8.82;;;6.70;;
32236;SDS011;18726;44.732;10.550;2023-12-22T16:38:13;4.10;;;3.72;;
32236;SDS011;18726;44.732;10.550;2023-12-22T16:41:17;5.50;;;4.38;;
32236;SDS011;18726;44.732;10.550;2023-12-22T16:44:21;4.68;;;3.22;;
32236;SDS011;18726;44.732;10.550;2023-12-22T16:47:25;3.65;;;3.35;;
32236;SDS011;18726;44.732;10.550;2023-12-22T16:50:33;3.60;;;3.30;;
32236;SDS011;18726;44.732;10.550;2023-12-22T16:53:37;3.20;;;3.00;;
32236;SDS011;18726;44.732;10.550;2023-12-22T16:56:41;3.20;;;2.97;;
32236;SDS011;18726;44.732;10.550;2023-12-22T17:03:13;10.80;;;7.32;;
32236;SDS011;18726;44.732;10.550;2023-12-22T17:06:17;9.25;;;7.43;;
32236;SDS011;18726;44.732;10.550;2023-12-22T17:09:21;6.93;;;5.97;;
32236;SDS011;18726;44.732;10.550;2023-12-22T17:12:26;8.20;;;6.28;;
32236;SDS011;18726;44.732;10.550;2023-12-22T17:15:30;9.70;;;4.90;;
32236;SDS011;18726;44.732;10.550;2023-12-22T17:18:34;9.38;;;6.15;;
32236;SDS011;18726;44.732;10.550;2023-12-22T17:21:38;6.55;;;5.07;;
32236;SDS011;18726;44.732;10.550;2023-12-22T17:24:45;13.15;;;5.20;;
32236;SDS011;18726;44.732;10.550;2023-12-22T17:27:48;9.25;;;5.55;;
32236;SDS011;18726;44.732;10.550;2023-12-22T17:30:51;9.15;;;6.57;;
32236;SDS011;18726;44.732;10.550;2023-12-22T17:33:55;7.55;;;6.05;;
32236;SDS011;18726;44.732;10.550;2023-12-22T17:37:01;10.85;;;5.95;;
32236;SDS011;18726;44.732;10.550;2023-12-22T17:40:07;12.13;;;6.28;;
32236;SDS011;18726;44.732;10.550;2023-12-22T17:43:11;11.68;;;8.18;;
32236;SDS011;18726;44.732;10.550;2023-12-22T17:46:15;8.45;;;7.20;;
32236;SDS011;18726;44.732;10.550;2023-12-22T17:49:19;11.70;;;7.00;;
32236;SDS011;18726;44.732;10.550;2023-12-22T17:52:23;7.15;;;5.45;;
32236;SDS011;18726;44.732;10.550;2023-12-22T17:55:26;6.90;;;5.43;;
32236;SDS011;18726;44.732;10.550;2023-12-22T17:58:30;10.68;;;5.80;;
32236;SDS011;18726;44.732;10.550;2023-12-22T18:01:37;10.73;;;5.82;;
32236;SDS011;18726;44.732;10.550;2023-12-22T18:04:43;10.63;;;6.05;;
32236;SDS011;18726;44.732;10.550;2023-12-22T18:07:47;11.60;;;7.85;;
32236;SDS011;18726;44.732;10.550;2023-12-22T18:10:50;22.17;;;16.50;;
32236;SDS011;18726;44.732;10.550;2023-12-22T18:13:54;10.60;;;9.48;;
32236;SDS011;18726;44.732;10.550;2023-12-22T18:16:58;9.45;;;6.78;;